sensor_id;sensor_type;location;lat;lon;timestamp;pressure;altitude;pressure_sealevel;temperature;humidity
47726;BME280;33483;48.294;16.388;2023-04-26T00:00:50;99304.16;;;8.07;100.00
47726;BME280;33483;48.294;16.388;2023-04-26T00:03:19;99317.44;;;8.08;100.00
47726;BME280;33483;48.294;16.388;2023-04-26T00:05:46;99315.97;;;8.07;100.00
47726;BME280;33483;48.294;16.388;2023-04-26T00:08:14;99317.72;;;8.05;100.00
47726;BME280;33483;48.294;16.388;2023-04-26T00:10:41;99321.81;;;7.98;100.00
47726;BME280;33483;48.294;16.388;2023-04-26T00:13:08;99322.59;;;7.93;100.00
47726;BME280;33483;48.294;16.388;2023-04-26T00:15:35;99326.44;;;7.84;100.00
47726;BME280;33483;48.294;16.388;2023-04-26T00:18:02;99335.00;;;7.81;100.00
47726;BME280;33483;48.294;16.388;2023-04-26T00:20:32;99328.75;;;7.75;100.00
47726;BME280;33483;48.294;16.388;2023-04-26T00:22:59;99334.31;;;7.69;100.00
47726;BME280;33483;48.294;16.388;2023-04-26T00:25:26;99333.84;;;7.65;100.00
47726;BME280;33483;48.294;16.388;2023-04-26T00:27:53;99336.13;;;7.61;100.00
47726;BME280;33483;48.294;16.388;2023-04-26T00:30:21;99340.94;;;7.55;100.00
47726;BME280;33483;48.294;16.388;2023-04-26T00:32:48;99330.22;;;7.46;100.00
47726;BME280;33483;48.294;16.388;2023-04-26T00:35:15;99339.25;;;7.47;100.00
47726;BME280;33483;48.294;16.388;2023-04-26T00:37:42;99335.22;;;7.48;100.00
47726;BME280;33483;48.294;16.388;2023-04-26T00:40:12;99352.50;;;7.48;100.00
47726;BME280;33483;48.294;16.388;2023-04-26T00:42:40;99348.81;;;7.40;100.00
47726;BME280;33483;48.294;16.388;2023-04-26T00:45:09;99347.34;;;7.34;100.00
47726;BME280;33483;48.294;16.388;2023-04-26T00:47:36;99342.31;;;7.32;100.00
47726;BME280;33483;48.294;16.388;2023-04-26T00:50:04;99345.06;;;7.38;100.00
47726;BME280;33483;48.294;16.388;2023-04-26T00:52:32;99344.00;;;7.46;100.00
47726;BME280;33483;48.294;16.388;2023-04-26T00:55:00;99344.47;;;7.50;100.00
47726;BME280;33483;48.294;16.388;2023-04-26T00:57:27;99351.22;;;7.55;100.00
47726;BME280;33483;48.294;16.388;2023-04-26T00:59:56;99344.22;;;7.54;100.00
47726;BME280;33483;48.294;16.388;2023-04-26T01:02:24;99348.75;;;7.51;100.00
47726;BME280;33483;48.294;16.388;2023-04-26T01:04:52;99342.50;;;7.45;100.00
47726;BME280;33483;48.294;16.388;2023-04-26T01:07:19;99342.03;;;7.41;100.00
47726;BME280;33483;48.294;16.388;2023-04-26T01:09:46;99338.06;;;7.37;100.00
47726;BME280;33483;48.294;16.388;2023-04-26T01:12:17;99342.84;;;7.31;100.00
47726;BME280;33483;48.294;16.388;2023-04-26T01:14:45;99338.09;;;7.26;100.00
47726;BME280;33483;48.294;16.388;2023-04-26T01:17:14;99340.88;;;7.26;100.00
47726;BME280;33483;48.294;16.388;2023-04-26T01:19:46;99347.13;;;7.26;100.00
47726;BME280;33483;48.294;16.388;2023-04-26T01:22:13;99349.66;;;7.24;100.00
47726;BME280;33483;48.294;16.388;2023-04-26T01:24:41;99344.09;;;7.30;100.00
47726;BME280;33483;48.294;16.388;2023-04-26T01:27:11;99354.34;;;7.35;100.00
47726;BME280;33483;48.294;16.388;2023-04-26T01:29:40;99356.06;;;7.38;100.00
47726;BME280;33483;48.294;16.388;2023-04-26T01:32:06;99359.84;;;7.40;100.00
47726;BME280;33483;48.294;16.388;2023-04-26T01:34:36;99363.09;;;7.39;100.00
47726;BME280;33483;48.294;16.388;2023-04-26T01:37:03;99372.59;;;7.43;100.00
47726;BME280;33483;48.294;16.388;2023-04-26T01:39:30;99371.84;;;7.43;100.00
47726;BME280;33483;48.294;16.388;2023-04-26T01:41:57;99370.88;;;7.40;100.00
47726;BME280;33483;48.294;16.388;2023-04-26T01:44:24;99371.63;;;7.41;100.00
47726;BME280;33483;48.294;16.388;2023-04-26T01:46:51;99378.88;;;7.38;100.00
47726;BME280;33483;48.294;16.388;2023-04-26T01:49:18;99376.41;;;7.35;100.00
47726;BME280;33483;48.294;16.388;2023-04-26T01:51:46;99387.22;;;7.27;100.00
47726;BME280;33483;48.294;16.388;2023-04-26T01:54:13;99389.53;;;7.18;100.00
47726;BME280;33483;48.294;16.388;2023-04-26T01:56:40;99387.53;;;7.13;100.00
47726;BME280;33483;48.294;16.388;2023-04-26T01:59:08;99392.56;;;7.09;100.00
47726;BME280;33483;48.294;16.388;2023-04-26T02:01:37;99384.84;;;6.96;100.00
47726;BME280;33483;48.294;16.388;2023-04-26T02:04:04;99379.13;;;6.89;100.00
47726;BME280;33483;48.294;16.388;2023-04-26T02:06:32;99384.91;;;6.85;100.00
47726;BME280;33483;48.294;16.388;2023-04-26T02:08:59;99387.16;;;6.75;100.00
47726;BME280;33483;48.294;16.388;2023-04-26T02:11:26;99388.69;;;6.71;100.00
47726;BME280;33483;48.294;16.388;2023-04-26T02:13:55;99380.94;;;6.64;100.00
47726;BME280;33483;48.294;16.388;2023-04-26T02:16:22;99383.47;;;6.51;100.00
47726;BME280;33483;48.294;16.388;2023-04-26T02:18:50;99390.22;;;6.50;100.00
47726;BME280;33483;48.294;16.388;2023-04-26T02:21:19;99387.72;;;6.46;100.00
47726;BME280;33483;48.294;16.388;2023-04-26T02:23:47;99380.25;;;6.41;100.00
47726;BME280;33483;48.294;16.388;2023-04-26T02:26:14;99389.22;;;6.36;100.00
47726;BME280;33483;48.294;16.388;2023-04-26T02:28:42;99376.97;;;6.32;100.00
47726;BME280;33483;48.294;16.388;2023-04-26T02:31:09;99384.47;;;6.31;100.00
47726;BME280;33483;48.294;16.388;2023-04-26T02:33:37;99381.50;;;6.24;100.00
47726;BME280;33483;48.294;16.388;2023-04-26T02:36:04;99381.97;;;6.28;100.00
47726;BME280;33483;48.294;16.388;2023-04-26T02:38:35;99387.75;;;6.24;100.00
47726;BME280;33483;48.294;16.388;2023-04-26T02:41:04;99388.25;;;6.23;100.00
47726;BME280;33483;48.294;16.388;2023-04-26T02:43:32;99389.25;;;6.20;100.00
47726;BME280;33483;48.294;16.388;2023-04-26T02:46:02;99387.75;;;6.13;100.00
47726;BME280;33483;48.294;16.388;2023-04-26T02:48:32;99390.00;;;5.98;100.00
47726;BME280;33483;48.294;16.388;2023-04-26T02:50:59;99385.50;;;5.95;100.00
47726;BME280;33483;48.294;16.388;2023-04-26T02:53:27;99377.25;;;5.95;100.00
47726;BME280;33483;48.294;16.388;2023-04-26T02:55:54;99383.50;;;5.96;100.00
47726;BME280;33483;48.294;16.388;2023-04-26T02:58:21;99383.25;;;5.94;100.00
47726;BME280;33483;48.294;16.388;2023-04-26T03:00:48;99378.50;;;5.89;100.00
47726;BME280;33483;48.294;16.388;2023-04-26T03:03:16;99374.00;;;5.91;100.00
47726;BME280;33483;48.294;16.388;2023-04-26T03:05:45;99386.25;;;5.90;100.00
47726;BME280;33483;48.294;16.388;2023-04-26T03:08:13;99390.00;;;5.87;100.00
47726;BME280;33483;48.294;16.388;2023-04-26T03:10:45;99391.00;;;5.84;100.00
47726;BME280;33483;48.294;16.388;2023-04-26T03:13:12;99390.25;;;5.84;100.00
47726;BME280;33483;48.294;16.388;2023-04-26T03:15:43;99391.50;;;5.83;100.00
47726;BME280;33483;48.294;16.388;2023-04-26T03:18:10;99401.28;;;5.89;100.00
47726;BME280;33483;48.294;16.388;2023-04-26T03:20:37;99399.75;;;5.88;100.00
47726;BME280;33483;48.294;16.388;2023-04-26T03:23:04;99392.47;;;5.80;100.00
47726;BME280;33483;48.294;16.388;2023-04-26T03:25:31;99400.47;;;5.78;100.00
47726;BME280;33483;48.294;16.388;2023-04-26T03:27:59;99403.97;;;5.78;100.00
47726;BME280;33483;48.294;16.388;2023-04-26T03:30:25;99398.97;;;5.77;100.00
47726;BME280;33483;48.294;16.388;2023-04-26T03:32:53;99398.97;;;5.82;100.00
47726;BME280;33483;48.294;16.388;2023-04-26T03:35:20;99396.75;;;5.86;100.00
47726;BME280;33483;48.294;16.388;2023-04-26T03:37:47;99409.50;;;5.84;100.00
47726;BME280;33483;48.294;16.388;2023-04-26T03:40:17;99405.69;;;5.75;100.00
47726;BME280;33483;48.294;16.388;2023-04-26T03:42:45;99419.94;;;5.74;100.00
47726;BME280;33483;48.294;16.388;2023-04-26T03:45:13;99417.94;;;5.69;100.00
47726;BME280;33483;48.294;16.388;2023-04-26T03:47:41;99416.69;;;5.64;100.00
47726;BME280;33483;48.294;16.388;2023-04-26T03:50:08;99419.94;;;5.68;100.00
47726;BME280;33483;48.294;16.388;2023-04-26T03:52:35;99427.19;;;5.66;100.00
47726;BME280;33483;48.294;16.388;2023-04-26T03:55:03;99426.94;;;5.64;100.00
47726;BME280;33483;48.294;16.388;2023-04-26T03:57:31;99425.69;;;5.65;100.00
47726;BME280;33483;48.294;16.388;2023-04-26T03:59:59;99428.19;;;5.63;100.00
47726;BME280;33483;48.294;16.388;2023-04-26T04:02:26;99431.19;;;5.65;100.00
47726;BME280;33483;48.294;16.388;2023-04-26T04:04:55;99429.44;;;5.62;100.00
47726;BME280;33483;48.294;16.388;2023-04-26T04:07:25;99420.19;;;5.65;100.00
47726;BME280;33483;48.294;16.388;2023-04-26T04:09:52;99428.44;;;5.65;100.00
47726;BME280;33483;48.294;16.388;2023-04-26T04:12:19;99423.94;;;5.67;100.00
47726;BME280;33483;48.294;16.388;2023-04-26T04:14:47;99427.47;;;5.73;100.00
47726;BME280;33483;48.294;16.388;2023-04-26T04:17:15;99436.72;;;5.76;100.00
47726;BME280;33483;48.294;16.388;2023-04-26T04:19:42;99440.00;;;5.91;100.00
47726;BME280;33483;48.294;16.388;2023-04-26T04:22:09;99441.78;;;6.16;100.00
47726;BME280;33483;48.294;16.388;2023-04-26T04:24:37;99444.53;;;6.16;100.00
47726;BME280;33483;48.294;16.388;2023-04-26T04:27:05;99447.81;;;6.26;100.00
47726;BME280;33483;48.294;16.388;2023-04-26T04:29:32;99453.28;;;6.37;100.00
47726;BME280;33483;48.294;16.388;2023-04-26T04:32:01;99451.81;;;6.41;100.00
47726;BME280;33483;48.294;16.388;2023-04-26T04:34:28;99453.56;;;6.44;100.00
47726;BME280;33483;48.294;16.388;2023-04-26T04:36:59;99456.31;;;6.44;100.00
47726;BME280;33483;48.294;16.388;2023-04-26T04:39:26;99461.03;;;6.38;100.00
47726;BME280;33483;48.294;16.388;2023-04-26T04:41:54;99459.81;;;6.39;100.00
47726;BME280;33483;48.294;16.388;2023-04-26T04:44:22;99461.81;;;6.44;100.00
47726;BME280;33483;48.294;16.388;2023-04-26T04:46:51;99463.56;;;6.47;100.00
47726;BME280;33483;48.294;16.388;2023-04-26T04:49:19;99468.31;;;6.52;100.00
47726;BME280;33483;48.294;16.388;2023-04-26T04:51:47;99469.31;;;6.49;100.00
47726;BME280;33483;48.294;16.388;2023-04-26T04:54:17;99479.31;;;6.47;100.00
47726;BME280;33483;48.294;16.388;2023-04-26T04:56:46;99470.31;;;6.52;100.00
47726;BME280;33483;48.294;16.388;2023-04-26T04:59:14;99469.06;;;6.47;100.00
47726;BME280;33483;48.294;16.388;2023-04-26T05:01:41;99476.06;;;6.48;100.00
47726;BME280;33483;48.294;16.388;2023-04-26T05:04:12;99476.81;;;6.54;100.00
47726;BME280;33483;48.294;16.388;2023-04-26T05:06:40;99467.78;;;6.59;100.00
47726;BME280;33483;48.294;16.388;2023-04-26T05:09:10;99471.31;;;6.71;100.00
47726;BME280;33483;48.294;16.388;2023-04-26T05:11:37;99480.31;;;6.71;100.00
47726;BME280;33483;48.294;16.388;2023-04-26T05:14:06;99481.00;;;7.00;100.00
47726;BME280;33483;48.294;16.388;2023-04-26T05:16:33;99486.19;;;7.31;100.00
47726;BME280;33483;48.294;16.388;2023-04-26T05:19:02;99485.44;;;7.30;100.00
47726;BME280;33483;48.294;16.388;2023-04-26T05:21:29;99485.47;;;7.25;100.00
47726;BME280;33483;48.294;16.388;2023-04-26T05:23:57;99492.25;;;7.81;100.00
47726;BME280;33483;48.294;16.388;2023-04-26T05:26:25;99493.06;;;8.11;100.00
47726;BME280;33483;48.294;16.388;2023-04-26T05:29:15;99496.19;;;7.96;98.78
47726;BME280;33483;48.294;16.388;2023-04-26T05:31:57;99505.97;;;7.92;100.00
47726;BME280;33483;48.294;16.388;2023-04-26T05:34:50;99515.03;;;7.87;98.47
47726;BME280;33483;48.294;16.388;2023-04-26T05:37:18;99511.00;;;7.88;100.00
47726;BME280;33483;48.294;16.388;2023-04-26T05:39:44;99511.97;;;7.96;100.00
47726;BME280;33483;48.294;16.388;2023-04-26T05:42:12;99505.47;;;8.34;99.59
47726;BME280;33483;48.294;16.388;2023-04-26T05:44:42;99515.84;;;8.58;93.65
47726;BME280;33483;48.294;16.388;2023-04-26T05:47:09;99515.88;;;8.17;93.52
47726;BME280;33483;48.294;16.388;2023-04-26T05:49:36;99516.41;;;8.10;97.69
47726;BME280;33483;48.294;16.388;2023-04-26T05:52:03;99526.16;;;8.17;98.30
47726;BME280;33483;48.294;16.388;2023-04-26T05:54:30;99533.59;;;8.68;90.54
47726;BME280;33483;48.294;16.388;2023-04-26T05:56:57;99525.91;;;8.85;90.80
47726;BME280;33483;48.294;16.388;2023-04-26T05:59:26;99524.03;;;8.69;91.89
47726;BME280;33483;48.294;16.388;2023-04-26T06:01:58;99528.44;;;8.53;91.37
47726;BME280;33483;48.294;16.388;2023-04-26T06:04:27;99535.13;;;8.93;89.03
47726;BME280;33483;48.294;16.388;2023-04-26T06:07:09;99545.34;;;9.03;88.97
47726;BME280;33483;48.294;16.388;2023-04-26T06:09:36;99543.84;;;9.02;89.17
47726;BME280;33483;48.294;16.388;2023-04-26T06:12:03;99545.28;;;9.09;88.10
47726;BME280;33483;48.294;16.388;2023-04-26T06:14:33;99556.53;;;9.65;78.82
47726;BME280;33483;48.294;16.388;2023-04-26T06:17:05;99564.66;;;10.18;74.82
47726;BME280;33483;48.294;16.388;2023-04-26T06:19:32;99559.88;;;10.19;75.95
47726;BME280;33483;48.294;16.388;2023-04-26T06:21:59;99554.94;;;9.69;74.90
47726;BME280;33483;48.294;16.388;2023-04-26T06:24:27;99563.56;;;9.42;73.41
47726;BME280;33483;48.294;16.388;2023-04-26T06:26:54;99562.31;;;9.43;74.08
47726;BME280;33483;48.294;16.388;2023-04-26T06:29:21;99562.94;;;9.30;73.23
47726;BME280;33483;48.294;16.388;2023-04-26T06:31:48;99569.03;;;9.47;71.43
47726;BME280;33483;48.294;16.388;2023-04-26T06:34:18;99569.16;;;9.60;69.18
47726;BME280;33483;48.294;16.388;2023-04-26T06:36:46;99575.13;;;10.07;70.10
47726;BME280;33483;48.294;16.388;2023-04-26T06:39:13;99576.19;;;10.41;66.39
47726;BME280;33483;48.294;16.388;2023-04-26T06:41:42;99580.28;;;10.72;62.40
47726;BME280;33483;48.294;16.388;2023-04-26T06:44:10;99583.31;;;12.57;58.18
47726;BME280;33483;48.294;16.388;2023-04-26T06:46:41;99580.16;;;13.99;50.53
47726;BME280;33483;48.294;16.388;2023-04-26T06:49:09;99594.25;;;15.32;45.66
47726;BME280;33483;48.294;16.388;2023-04-26T06:51:37;99600.31;;;15.99;43.40
47726;BME280;33483;48.294;16.388;2023-04-26T06:54:04;99600.31;;;16.53;41.75
47726;BME280;33483;48.294;16.388;2023-04-26T06:56:31;99600.88;;;16.52;40.07
47726;BME280;33483;48.294;16.388;2023-04-26T06:59:02;99610.31;;;16.96;39.38
47726;BME280;33483;48.294;16.388;2023-04-26T07:01:30;99627.03;;;17.77;37.54
47726;BME280;33483;48.294;16.388;2023-04-26T07:04:00;99612.78;;;17.66;35.91
47726;BME280;33483;48.294;16.388;2023-04-26T07:06:32;99626.69;;;18.59;35.12
47726;BME280;33483;48.294;16.388;2023-04-26T07:08:59;99622.09;;;18.20;34.54
47726;BME280;33483;48.294;16.388;2023-04-26T07:11:27;99614.91;;;19.23;34.36
47726;BME280;33483;48.294;16.388;2023-04-26T07:13:56;99622.16;;;18.63;34.42
47726;BME280;33483;48.294;16.388;2023-04-26T07:16:26;99615.63;;;18.87;33.69
47726;BME280;33483;48.294;16.388;2023-04-26T07:18:53;99625.41;;;19.23;32.56
47726;BME280;33483;48.294;16.388;2023-04-26T07:21:24;99613.41;;;18.86;33.22
47726;BME280;33483;48.294;16.388;2023-04-26T07:23:55;99621.41;;;18.89;32.88
47726;BME280;33483;48.294;16.388;2023-04-26T07:26:23;99621.53;;;18.04;33.44
47726;BME280;33483;48.294;16.388;2023-04-26T07:28:52;99624.44;;;19.37;31.74
47726;BME280;33483;48.294;16.388;2023-04-26T07:31:22;99620.84;;;19.27;32.54
47726;BME280;33483;48.294;16.388;2023-04-26T07:33:49;99616.22;;;15.66;38.01
47726;BME280;33483;48.294;16.388;2023-04-26T07:36:17;99611.38;;;15.21;38.12
47726;BME280;33483;48.294;16.388;2023-04-26T07:38:44;99611.94;;;15.65;38.94
47726;BME280;33483;48.294;16.388;2023-04-26T07:41:11;99625.69;;;16.48;36.69
47726;BME280;33483;48.294;16.388;2023-04-26T07:43:38;99619.19;;;15.68;37.55
47726;BME280;33483;48.294;16.388;2023-04-26T07:46:05;99618.34;;;16.60;36.98
47726;BME280;33483;48.294;16.388;2023-04-26T07:48:32;99609.69;;;14.02;40.30
47726;BME280;33483;48.294;16.388;2023-04-26T07:51:09;99618.34;;;14.62;39.58
47726;BME280;33483;48.294;16.388;2023-04-26T07:56:37;99615.00;;;17.67;33.72
47726;BME280;33483;48.294;16.388;2023-04-26T07:59:03;99614.88;;;15.90;35.06
47726;BME280;33483;48.294;16.388;2023-04-26T08:01:31;99617.50;;;15.88;36.14
47726;BME280;33483;48.294;16.388;2023-04-26T08:03:58;99619.56;;;15.64;37.11
47726;BME280;33483;48.294;16.388;2023-04-26T08:06:26;99616.81;;;17.72;34.96
47726;BME280;33483;48.294;16.388;2023-04-26T08:08:54;99629.25;;;17.13;33.12
47726;BME280;33483;48.294;16.388;2023-04-26T08:11:24;99632.81;;;18.14;32.69
47726;BME280;33483;48.294;16.388;2023-04-26T08:13:53;99637.25;;;18.68;31.48
47726;BME280;33483;48.294;16.388;2023-04-26T08:16:21;99635.59;;;18.65;31.88
47726;BME280;33483;48.294;16.388;2023-04-26T08:18:50;99634.63;;;17.84;31.92
47726;BME280;33483;48.294;16.388;2023-04-26T08:21:18;99633.47;;;17.87;32.01
47726;BME280;33483;48.294;16.388;2023-04-26T08:23:45;99629.13;;;17.03;33.13
47726;BME280;33483;48.294;16.388;2023-04-26T08:26:13;99628.91;;;16.76;34.69
47726;BME280;33483;48.294;16.388;2023-04-26T08:28:42;99628.13;;;15.36;36.86
47726;BME280;33483;48.294;16.388;2023-04-26T08:31:09;99627.28;;;14.25;38.52
47726;BME280;33483;48.294;16.388;2023-04-26T08:33:36;99622.63;;;13.35;39.19
47726;BME280;33483;48.294;16.388;2023-04-26T08:36:03;99623.28;;;12.87;40.53
47726;BME280;33483;48.294;16.388;2023-04-26T08:38:30;99620.69;;;12.69;42.00
47726;BME280;33483;48.294;16.388;2023-04-26T08:40:58;99627.31;;;12.19;43.03
47726;BME280;33483;48.294;16.388;2023-04-26T08:43:29;99616.25;;;11.93;45.18
47726;BME280;33483;48.294;16.388;2023-04-26T08:45:57;99628.31;;;11.82;45.33
47726;BME280;33483;48.294;16.388;2023-04-26T08:48:27;99628.63;;;11.66;45.05
47726;BME280;33483;48.294;16.388;2023-04-26T08:50:58;99629.13;;;11.51;44.73
47726;BME280;33483;48.294;16.388;2023-04-26T08:53:26;99625.09;;;11.65;45.32
47726;BME280;33483;48.294;16.388;2023-04-26T08:55:55;99637.78;;;15.05;39.11
47726;BME280;33483;48.294;16.388;2023-04-26T08:58:24;99632.78;;;15.26;37.93
47726;BME280;33483;48.294;16.388;2023-04-26T09:00:52;99632.91;;;13.40;40.26
47726;BME280;33483;48.294;16.388;2023-04-26T09:03:21;99626.59;;;12.65;41.74
47726;BME280;33483;48.294;16.388;2023-04-26T09:05:49;99614.22;;;12.53;42.67
47726;BME280;33483;48.294;16.388;2023-04-26T09:08:16;99618.81;;;12.04;44.34
47726;BME280;33483;48.294;16.388;2023-04-26T09:10:44;99628.88;;;11.94;44.37
47726;BME280;33483;48.294;16.388;2023-04-26T09:13:11;99628.53;;;11.97;44.19
47726;BME280;33483;48.294;16.388;2023-04-26T09:15:38;99620.19;;;11.84;45.21
47726;BME280;33483;48.294;16.388;2023-04-26T09:18:15;99621.78;;;11.67;44.92
47726;BME280;33483;48.294;16.388;2023-04-26T09:20:45;99617.59;;;11.60;44.95
47726;BME280;33483;48.294;16.388;2023-04-26T09:23:27;99624.00;;;11.55;45.56
47726;BME280;33483;48.294;16.388;2023-04-26T09:25:54;99623.50;;;11.83;44.52
47726;BME280;33483;48.294;16.388;2023-04-26T09:28:22;99625.09;;;11.91;44.41
47726;BME280;33483;48.294;16.388;2023-04-26T09:30:49;99620.44;;;11.99;44.20
47726;BME280;33483;48.294;16.388;2023-04-26T09:33:18;99614.75;;;11.66;44.42
47726;BME280;33483;48.294;16.388;2023-04-26T09:35:46;99606.50;;;11.60;46.37
47726;BME280;33483;48.294;16.388;2023-04-26T09:38:13;99609.56;;;11.30;45.88
47726;BME280;33483;48.294;16.388;2023-04-26T09:40:42;99604.31;;;11.14;46.44
47726;BME280;33483;48.294;16.388;2023-04-26T09:43:13;99605.63;;;10.94;47.24
47726;BME280;33483;48.294;16.388;2023-04-26T09:48:14;99614.22;;;11.67;46.75
47726;BME280;33483;48.294;16.388;2023-04-26T09:50:43;99610.69;;;12.06;46.76
47726;BME280;33483;48.294;16.388;2023-04-26T09:53:23;99610.06;;;11.74;45.37
47726;BME280;33483;48.294;16.388;2023-04-26T09:55:53;99611.69;;;11.38;48.62
47726;BME280;33483;48.294;16.388;2023-04-26T09:58:20;99621.88;;;11.03;47.49
47726;BME280;33483;48.294;16.388;2023-04-26T10:00:49;99627.72;;;10.68;49.43
47726;BME280;33483;48.294;16.388;2023-04-26T10:03:17;99610.56;;;10.14;51.02
47726;BME280;33483;48.294;16.388;2023-04-26T10:05:48;99620.84;;;9.95;53.79
47726;BME280;33483;48.294;16.388;2023-04-26T10:08:15;99608.25;;;9.94;53.36
47726;BME280;33483;48.294;16.388;2023-04-26T10:10:42;99594.09;;;10.22;52.50
47726;BME280;33483;48.294;16.388;2023-04-26T10:13:09;99593.69;;;12.56;49.43
47726;BME280;33483;48.294;16.388;2023-04-26T10:15:38;99606.06;;;14.14;43.89
47726;BME280;33483;48.294;16.388;2023-04-26T10:18:05;99602.34;;;13.27;44.08
47726;BME280;33483;48.294;16.388;2023-04-26T10:20:33;99610.69;;;12.86;45.80
47726;BME280;33483;48.294;16.388;2023-04-26T10:23:04;99601.97;;;12.35;45.27
47726;BME280;33483;48.294;16.388;2023-04-26T10:25:33;99601.91;;;12.62;45.95
47726;BME280;33483;48.294;16.388;2023-04-26T10:28:01;99600.06;;;14.03;43.15
47726;BME280;33483;48.294;16.388;2023-04-26T10:30:29;99609.31;;;15.29;41.46
47726;BME280;33483;48.294;16.388;2023-04-26T10:35:28;99601.34;;;15.63;36.13
47726;BME280;33483;48.294;16.388;2023-04-26T10:40:38;99597.28;;;16.12;38.35
47726;BME280;33483;48.294;16.388;2023-04-26T10:45:42;99584.03;;;13.96;41.27
47726;BME280;33483;48.294;16.388;2023-04-26T10:48:19;99587.16;;;13.28;43.62
47726;BME280;33483;48.294;16.388;2023-04-26T11:01:39;99583.28;;;11.31;46.11
47726;BME280;33483;48.294;16.388;2023-04-26T11:04:10;99591.59;;;11.76;46.96
47726;BME280;33483;48.294;16.388;2023-04-26T11:12:03;99571.47;;;13.74;41.76
47726;BME280;33483;48.294;16.388;2023-04-26T11:14:34;99572.66;;;13.50;41.60
47726;BME280;33483;48.294;16.388;2023-04-26T11:17:02;99569.53;;;13.62;40.80
47726;BME280;33483;48.294;16.388;2023-04-26T11:19:30;99561.00;;;13.88;41.00
47726;BME280;33483;48.294;16.388;2023-04-26T11:21:58;99571.41;;;13.95;41.37
47726;BME280;33483;48.294;16.388;2023-04-26T11:24:27;99568.13;;;13.76;42.97
47726;BME280;33483;48.294;16.388;2023-04-26T11:26:54;99557.38;;;13.44;44.62
47726;BME280;33483;48.294;16.388;2023-04-26T11:29:21;99553.34;;;13.88;43.01
47726;BME280;33483;48.294;16.388;2023-04-26T11:31:52;99554.91;;;13.69;42.36
47726;BME280;33483;48.294;16.388;2023-04-26T11:34:34;99564.28;;;13.50;44.01
47726;BME280;33483;48.294;16.388;2023-04-26T11:37:01;99556.06;;;12.96;43.27
47726;BME280;33483;48.294;16.388;2023-04-26T11:39:31;99552.75;;;12.77;42.80
47726;BME280;33483;48.294;16.388;2023-04-26T11:42:08;99554.28;;;12.65;45.57
47726;BME280;33483;48.294;16.388;2023-04-26T11:44:35;99554.38;;;13.14;44.71
47726;BME280;33483;48.294;16.388;2023-04-26T11:47:04;99563.41;;;13.55;45.93
47726;BME280;33483;48.294;16.388;2023-04-26T11:49:35;99557.88;;;13.63;44.29
47726;BME280;33483;48.294;16.388;2023-04-26T11:52:03;99554.34;;;14.49;44.84
47726;BME280;33483;48.294;16.388;2023-04-26T11:54:34;99557.56;;;15.13;44.66
47726;BME280;33483;48.294;16.388;2023-04-26T11:57:13;99570.97;;;15.22;40.40
47726;BME280;33483;48.294;16.388;2023-04-26T11:59:43;99561.13;;;15.06;39.23
47726;BME280;33483;48.294;16.388;2023-04-26T12:02:10;99568.06;;;14.32;39.57
47726;BME280;33483;48.294;16.388;2023-04-26T12:04:38;99554.56;;;14.08;40.28
47726;BME280;33483;48.294;16.388;2023-04-26T12:07:07;99545.44;;;14.00;39.48
47726;BME280;33483;48.294;16.388;2023-04-26T12:09:38;99558.22;;;13.60;40.37
47726;BME280;33483;48.294;16.388;2023-04-26T12:12:06;99559.34;;;13.64;41.96
47726;BME280;33483;48.294;16.388;2023-04-26T12:14:36;99561.66;;;13.45;42.33
47726;BME280;33483;48.294;16.388;2023-04-26T12:17:04;99558.84;;;13.17;42.19
47726;BME280;33483;48.294;16.388;2023-04-26T12:19:32;99563.72;;;12.83;42.38
47726;BME280;33483;48.294;16.388;2023-04-26T12:22:00;99551.66;;;12.80;44.17
47726;BME280;33483;48.294;16.388;2023-04-26T12:24:28;99559.81;;;13.19;41.93
47726;BME280;33483;48.294;16.388;2023-04-26T12:27:00;99550.31;;;13.43;43.30
47726;BME280;33483;48.294;16.388;2023-04-26T12:29:32;99561.56;;;13.09;42.22
47726;BME280;33483;48.294;16.388;2023-04-26T12:32:01;99549.75;;;12.75;43.15
47726;BME280;33483;48.294;16.388;2023-04-26T12:34:32;99563.13;;;12.77;40.74
47726;BME280;33483;48.294;16.388;2023-04-26T12:37:02;99558.41;;;13.05;40.71
47726;BME280;33483;48.294;16.388;2023-04-26T12:39:29;99551.47;;;13.47;41.58
47726;BME280;33483;48.294;16.388;2023-04-26T12:41:56;99549.84;;;13.95;41.54
47726;BME280;33483;48.294;16.388;2023-04-26T12:44:23;99550.16;;;13.77;39.66
47726;BME280;33483;48.294;16.388;2023-04-26T12:46:51;99560.91;;;13.44;39.81
47726;BME280;33483;48.294;16.388;2023-04-26T12:49:18;99554.44;;;13.21;40.12
47726;BME280;33483;48.294;16.388;2023-04-26T12:51:45;99560.00;;;13.21;39.61
47726;BME280;33483;48.294;16.388;2023-04-26T12:54:12;99571.06;;;13.63;39.82
47726;BME280;33483;48.294;16.388;2023-04-26T12:56:39;99561.16;;;13.90;39.03
47726;BME280;33483;48.294;16.388;2023-04-26T12:59:10;99559.13;;;13.90;37.77
47726;BME280;33483;48.294;16.388;2023-04-26T13:01:39;99557.81;;;13.55;38.45
47726;BME280;33483;48.294;16.388;2023-04-26T13:04:07;99552.34;;;13.42;39.31
47726;BME280;33483;48.294;16.388;2023-04-26T13:06:34;99548.13;;;13.49;39.36
47726;BME280;33483;48.294;16.388;2023-04-26T13:09:02;99555.72;;;13.77;39.26
47726;BME280;33483;48.294;16.388;2023-04-26T13:11:29;99551.69;;;13.85;38.60
47726;BME280;33483;48.294;16.388;2023-04-26T13:13:56;99548.13;;;13.85;38.16
47726;BME280;33483;48.294;16.388;2023-04-26T13:16:23;99545.25;;;14.05;38.10
47726;BME280;33483;48.294;16.388;2023-04-26T13:18:53;99557.53;;;14.10;39.73
47726;BME280;33483;48.294;16.388;2023-04-26T13:21:21;99549.66;;;13.93;39.29
47726;BME280;33483;48.294;16.388;2023-04-26T13:23:48;99559.16;;;13.98;39.78
47726;BME280;33483;48.294;16.388;2023-04-26T13:26:18;99548.78;;;14.06;39.50